createdAt,value
2023-02-19T00:00:50.243Z,1027.78
2023-02-19T00:01:50.844Z,1027.89
2023-02-19T00:02:52.255Z,1027.83
2023-02-19T00:03:52.848Z,1027.89
2023-02-19T00:04:54.321Z,1027.90
2023-02-19T00:05:55.020Z,1027.85
2023-02-19T00:06:55.614Z,1027.79
2023-02-19T00:07:56.227Z,1027.82
2023-02-19T00:08:56.824Z,1027.81
2023-02-19T00:09:57.431Z,1027.82
2023-02-19T00:10:58.027Z,1027.81
2023-02-19T00:11:58.742Z,1027.83
2023-02-19T00:12:59.397Z,1027.75
2023-02-19T00:13:59.994Z,1027.73
2023-02-19T00:15:00.598Z,1027.80
2023-02-19T00:16:01.250Z,1027.83
2023-02-19T00:17:01.874Z,1027.75
2023-02-19T00:18:02.465Z,1027.78
2023-02-19T00:19:03.079Z,1027.71
2023-02-19T00:20:03.666Z,1027.72
2023-02-19T00:21:04.270Z,1027.77
2023-02-19T00:22:04.875Z,1027.69
2023-02-19T00:23:05.470Z,1027.76
2023-02-19T00:24:06.077Z,1027.73
2023-02-19T00:25:06.677Z,1027.69
2023-02-19T00:26:17.618Z,1027.66
2023-02-19T00:27:08.863Z,1027.62
2023-02-19T00:28:09.459Z,1027.63
2023-02-19T00:29:10.064Z,1027.64
2023-02-19T00:30:10.700Z,1027.65
2023-02-19T00:31:12.670Z,1027.57
2023-02-19T00:32:13.578Z,1027.55
2023-02-19T00:33:15.017Z,1027.56
2023-02-19T00:34:15.782Z,1027.54
2023-02-19T00:35:16.379Z,1027.57
2023-02-19T00:36:16.972Z,1027.61
2023-02-19T00:37:17.572Z,1027.57
2023-02-19T00:38:18.176Z,1027.56
2023-02-19T00:39:18.939Z,1027.53
2023-02-19T00:40:19.561Z,1027.56
2023-02-19T00:41:20.173Z,1027.50
2023-02-19T00:42:20.762Z,1027.53
2023-02-19T00:43:21.368Z,1027.52
2023-02-19T00:44:21.964Z,1027.47
2023-02-19T00:45:22.568Z,1027.52
2023-02-19T00:46:23.184Z,1027.48
2023-02-19T00:47:23.805Z,1027.46
2023-02-19T00:48:24.447Z,1027.49
2023-02-19T00:49:25.109Z,1027.42
2023-02-19T00:50:25.696Z,1027.38
2023-02-19T00:51:26.318Z,1027.45
2023-02-19T00:52:26.974Z,1027.37
2023-02-19T00:53:27.578Z,1027.39
2023-02-19T00:54:28.181Z,1027.37
2023-02-19T00:55:28.775Z,1027.36
2023-02-19T00:56:29.372Z,1027.41
2023-02-19T00:57:29.974Z,1027.40
2023-02-19T00:58:30.580Z,1027.40
2023-02-19T00:59:31.228Z,1027.43
2023-02-19T01:00:31.829Z,1027.39
2023-02-19T01:01:32.479Z,1027.36
2023-02-19T01:02:33.117Z,1027.37
2023-02-19T01:03:33.711Z,1027.36
2023-02-19T01:04:34.339Z,1027.37
2023-02-19T01:05:34.946Z,1027.29
2023-02-19T01:06:35.568Z,1027.28
2023-02-19T01:07:36.168Z,1027.28
2023-02-19T01:08:36.785Z,1027.28
2023-02-19T01:09:37.359Z,1027.23
2023-02-19T01:10:37.959Z,1027.23
2023-02-19T01:11:38.619Z,1027.25
2023-02-19T01:12:39.218Z,1027.16
2023-02-19T01:13:39.875Z,1027.22
2023-02-19T01:14:40.472Z,1027.19
2023-02-19T01:15:41.075Z,1027.18
2023-02-19T01:16:41.675Z,1027.12
2023-02-19T01:17:42.271Z,1027.09
2023-02-19T01:18:42.867Z,1027.08
2023-02-19T01:19:43.473Z,1027.08
2023-02-19T01:20:44.070Z,1027.06
2023-02-19T01:21:44.667Z,1027.07
2023-02-19T01:22:46.078Z,1027.05
2023-02-19T01:23:46.661Z,1027.05
2023-02-19T01:24:47.256Z,1026.99
2023-02-19T01:25:47.864Z,1027.03
2023-02-19T01:26:48.465Z,1026.99
2023-02-19T01:27:49.063Z,1027.01
2023-02-19T01:28:49.756Z,1027.02
2023-02-19T01:29:50.343Z,1026.93
2023-02-19T01:30:50.971Z,1026.91
2023-02-19T01:31:51.625Z,1027.02
2023-02-19T01:32:52.273Z,1026.96
2023-02-19T01:33:52.926Z,1027.00
2023-02-19T01:34:53.517Z,1026.95
2023-02-19T01:35:54.121Z,1026.93
2023-02-19T01:36:54.866Z,1026.98
2023-02-19T01:37:55.469Z,1026.95
2023-02-19T01:38:56.093Z,1026.91
2023-02-19T01:39:56.701Z,1026.92
2023-02-19T01:40:57.295Z,1026.91
2023-02-19T01:41:58.700Z,1026.96
2023-02-19T01:42:59.370Z,1026.92
2023-02-19T01:43:59.959Z,1026.89
2023-02-19T01:45:00.609Z,1026.85
2023-02-19T01:46:02.069Z,1026.84
2023-02-19T01:47:02.662Z,1026.88
2023-02-19T01:48:03.267Z,1026.85
2023-02-19T01:49:03.871Z,1026.86
2023-02-19T01:50:04.490Z,1026.84
2023-02-19T01:51:05.074Z,1026.86
2023-02-19T01:52:05.676Z,1026.80
2023-02-19T01:53:06.279Z,1026.83
2023-02-19T01:54:06.882Z,1026.85
2023-02-19T01:55:07.480Z,1026.85
2023-02-19T01:56:08.170Z,1026.86
2023-02-19T01:57:08.791Z,1026.84
2023-02-19T01:58:09.390Z,1026.86
2023-02-19T01:59:10.096Z,1026.91
2023-02-19T02:00:10.705Z,1026.81
2023-02-19T02:01:11.849Z,1026.83
2023-02-19T02:02:12.676Z,1026.88
2023-02-19T02:03:13.261Z,1026.75
2023-02-19T02:04:13.915Z,1026.78
2023-02-19T02:05:14.511Z,1026.75
2023-02-19T02:06:15.114Z,1026.76
2023-02-19T02:07:15.710Z,1026.77
2023-02-19T02:08:16.314Z,1026.74
2023-02-19T02:09:16.916Z,1026.78
2023-02-19T02:10:17.518Z,1026.86
2023-02-19T02:11:18.123Z,1026.81
2023-02-19T02:12:18.815Z,1026.81
2023-02-19T02:13:19.412Z,1026.88
2023-02-19T02:14:20.014Z,1026.81
2023-02-19T02:15:20.629Z,1026.79
2023-02-19T02:16:21.340Z,1026.79
2023-02-19T02:17:21.947Z,1026.80
2023-02-19T02:18:22.550Z,1026.78
2023-02-19T02:19:23.154Z,1026.79
2023-02-19T02:20:23.749Z,1026.79
2023-02-19T02:21:24.345Z,1026.80
2023-02-19T02:22:24.949Z,1026.81
2023-02-19T02:23:25.548Z,1026.88
2023-02-19T02:24:26.152Z,1026.88
2023-02-19T02:25:26.744Z,1026.88
2023-02-19T02:26:27.340Z,1026.82
2023-02-19T02:27:27.947Z,1026.81
2023-02-19T02:28:28.546Z,1026.79
2023-02-19T02:29:29.151Z,1026.85
2023-02-19T02:30:29.818Z,1026.84
2023-02-19T02:31:30.511Z,1026.82
2023-02-19T02:32:31.207Z,1026.82
2023-02-19T02:33:31.813Z,1026.77
2023-02-19T02:34:32.464Z,1026.87
2023-02-19T02:35:33.059Z,1026.82
2023-02-19T02:36:33.656Z,1026.78
2023-02-19T02:37:34.302Z,1026.84
2023-02-19T02:38:34.898Z,1026.84
2023-02-19T02:39:35.501Z,1026.80
2023-02-19T02:40:36.118Z,1026.82
2023-02-19T02:41:36.712Z,1026.78
2023-02-19T02:42:37.314Z,1026.77
2023-02-19T02:43:37.927Z,1026.74
2023-02-19T02:44:38.569Z,1026.80
2023-02-19T02:45:39.257Z,1026.76
2023-02-19T02:46:39.955Z,1026.76
2023-02-19T02:47:40.624Z,1026.81
2023-02-19T02:48:41.237Z,1026.68
2023-02-19T02:49:41.823Z,1026.82
2023-02-19T02:50:42.426Z,1026.68
2023-02-19T02:51:43.021Z,1026.74
2023-02-19T02:52:43.616Z,1026.70
2023-02-19T02:53:44.227Z,1026.76
2023-02-19T02:54:44.818Z,1026.77
2023-02-19T02:55:45.420Z,1026.69
2023-02-19T02:56:46.073Z,1026.72
2023-02-19T02:57:46.673Z,1026.73
2023-02-19T02:58:47.276Z,1026.73
2023-02-19T02:59:47.862Z,1026.73
2023-02-19T03:00:48.464Z,1026.73
2023-02-19T03:01:49.164Z,1026.70
2023-02-19T03:02:49.725Z,1026.74
2023-02-19T03:03:50.372Z,1026.65
2023-02-19T03:04:50.977Z,1026.72
2023-02-19T03:05:51.578Z,1026.67
2023-02-19T03:06:52.172Z,1026.72
2023-02-19T03:07:52.769Z,1026.67
2023-02-19T03:08:53.369Z,1026.72
2023-02-19T03:09:53.957Z,1026.70
2023-02-19T03:10:54.565Z,1026.65
2023-02-19T03:11:55.157Z,1026.63
2023-02-19T03:12:55.753Z,1026.66
2023-02-19T03:13:56.348Z,1026.60
2023-02-19T03:14:56.944Z,1026.65
2023-02-19T03:15:58.400Z,1026.61
2023-02-19T03:16:59.009Z,1026.58
2023-02-19T03:17:59.608Z,1026.56
2023-02-19T03:19:00.213Z,1026.57
2023-02-19T03:20:00.816Z,1026.53
2023-02-19T03:21:01.421Z,1026.55
2023-02-19T03:22:02.024Z,1026.49
2023-02-19T03:23:02.627Z,1026.48
2023-02-19T03:24:03.234Z,1026.51
2023-02-19T03:25:03.846Z,1026.53
2023-02-19T03:26:04.438Z,1026.52
2023-02-19T03:27:05.029Z,1026.57
2023-02-19T03:28:05.632Z,1026.51
2023-02-19T03:29:06.228Z,1026.55
2023-02-19T03:30:06.848Z,1026.49
2023-02-19T03:31:07.486Z,1026.54
2023-02-19T03:32:08.127Z,1026.56
2023-02-19T03:33:08.764Z,1026.53
2023-02-19T03:34:09.365Z,1026.55
2023-02-19T03:35:09.960Z,1026.57
2023-02-19T03:36:10.629Z,1026.46
2023-02-19T03:37:11.233Z,1026.56
2023-02-19T03:38:11.831Z,1026.53
2023-02-19T03:39:12.474Z,1026.61
2023-02-19T03:40:13.071Z,1026.55
2023-02-19T03:41:13.673Z,1026.55
2023-02-19T03:42:14.375Z,1026.54
2023-02-19T03:43:14.972Z,1026.57
2023-02-19T03:44:15.563Z,1026.55
2023-02-19T03:45:16.158Z,1026.53
2023-02-19T03:46:16.762Z,1026.46
2023-02-19T03:47:17.412Z,1026.43
2023-02-19T03:48:18.085Z,1026.52
2023-02-19T03:49:19.476Z,1026.47
2023-02-19T03:50:20.079Z,1026.50
2023-02-19T03:51:20.680Z,1026.41
2023-02-19T03:52:21.425Z,1026.46
2023-02-19T03:53:22.091Z,1026.45
2023-02-19T03:54:22.686Z,1026.46
2023-02-19T03:55:23.288Z,1026.46
2023-02-19T03:56:23.895Z,1026.49
2023-02-19T03:57:24.486Z,1026.39
2023-02-19T03:58:25.082Z,1026.45
2023-02-19T03:59:25.702Z,1026.37
2023-02-19T04:00:26.294Z,1026.40
2023-02-19T04:01:26.890Z,1026.41
2023-02-19T04:02:27.520Z,1026.45
2023-02-19T04:03:28.134Z,1026.43
2023-02-19T04:04:28.749Z,1026.35
2023-02-19T04:05:29.436Z,1026.34
2023-02-19T04:06:30.033Z,1026.38
2023-02-19T04:07:30.636Z,1026.45
2023-02-19T04:08:31.260Z,1026.35
2023-02-19T04:09:31.841Z,1026.39
2023-02-19T04:10:32.443Z,1026.35
2023-02-19T04:11:33.099Z,1026.37
2023-02-19T04:12:33.718Z,1026.30
2023-02-19T04:13:34.372Z,1026.28
2023-02-19T04:14:34.974Z,1026.36
2023-02-19T04:15:35.638Z,1026.32
2023-02-19T04:16:36.286Z,1026.30
2023-02-19T04:17:36.954Z,1026.30
2023-02-19T04:18:37.555Z,1026.33
2023-02-19T04:19:38.159Z,1026.30
2023-02-19T04:20:38.761Z,1026.30
2023-02-19T04:21:39.365Z,1026.36
2023-02-19T04:22:39.961Z,1026.37
2023-02-19T04:23:40.580Z,1026.34
2023-02-19T04:24:41.188Z,1026.46
2023-02-19T04:25:41.793Z,1026.47
2023-02-19T04:26:42.393Z,1026.40
2023-02-19T04:27:42.984Z,1026.46
2023-02-19T04:28:43.580Z,1026.39
2023-02-19T04:29:44.182Z,1026.38
2023-02-19T04:30:44.870Z,1026.52
2023-02-19T04:31:45.526Z,1026.37
2023-02-19T04:32:46.121Z,1026.50
2023-02-19T04:33:46.716Z,1026.42
2023-02-19T04:34:47.319Z,1026.38
2023-02-19T04:35:47.913Z,1026.38
2023-02-19T04:36:48.517Z,1026.52
2023-02-19T04:37:49.122Z,1026.34
2023-02-19T04:38:49.716Z,1026.34
2023-02-19T04:39:50.359Z,1026.34
2023-02-19T04:40:50.970Z,1026.37
2023-02-19T04:41:51.566Z,1026.43
2023-02-19T04:42:52.159Z,1026.39
2023-02-19T04:43:52.753Z,1026.38
2023-02-19T04:44:53.368Z,1026.35
2023-02-19T04:45:53.971Z,1026.38
2023-02-19T04:46:54.615Z,1026.29
2023-02-19T04:47:55.221Z,1026.34
2023-02-19T04:48:55.812Z,1026.40
2023-02-19T04:49:56.430Z,1026.31
2023-02-19T04:50:57.098Z,1026.29
2023-02-19T04:51:57.786Z,1026.39
2023-02-19T04:52:58.431Z,1026.40
2023-02-19T04:53:59.035Z,1026.43
2023-02-19T04:54:59.639Z,1026.40
2023-02-19T04:56:00.289Z,1026.44
2023-02-19T04:57:00.893Z,1026.42
2023-02-19T04:58:01.495Z,1026.47
2023-02-19T04:59:02.109Z,1026.43
2023-02-19T05:00:02.696Z,1026.50
2023-02-19T05:01:03.297Z,1026.44
2023-02-19T05:02:03.907Z,1026.41
2023-02-19T05:03:04.494Z,1026.45
2023-02-19T05:04:05.122Z,1026.41
2023-02-19T05:05:05.708Z,1026.48
2023-02-19T05:06:06.326Z,1026.51
2023-02-19T05:07:06.919Z,1026.53
2023-02-19T05:08:07.521Z,1026.43
2023-02-19T05:09:08.119Z,1026.49
2023-02-19T05:10:08.709Z,1026.45
2023-02-19T05:11:09.644Z,1026.48
2023-02-19T05:12:10.510Z,1026.45
2023-02-19T05:13:11.138Z,1026.55
2023-02-19T05:14:11.739Z,1026.48
2023-02-19T05:15:12.404Z,1026.47
2023-02-19T05:16:13.025Z,1026.48
2023-02-19T05:17:13.620Z,1026.44
2023-02-19T05:18:14.223Z,1026.47
2023-02-19T05:19:14.919Z,1026.41
2023-02-19T05:20:16.316Z,1026.38
2023-02-19T05:21:16.918Z,1026.42
2023-02-19T05:22:17.505Z,1026.46
2023-02-19T05:23:18.108Z,1026.41
2023-02-19T05:24:18.705Z,1026.41
2023-02-19T05:25:19.399Z,1026.49
2023-02-19T05:26:20.002Z,1026.51
2023-02-19T05:27:20.664Z,1026.49
2023-02-19T05:28:21.263Z,1026.53
2023-02-19T05:29:21.855Z,1026.51
2023-02-19T05:30:22.562Z,1026.44
2023-02-19T05:31:23.237Z,1026.46
2023-02-19T05:32:23.826Z,1026.43
2023-02-19T05:33:24.421Z,1026.48
2023-02-19T05:34:25.021Z,1026.41
2023-02-19T05:35:25.612Z,1026.46
2023-02-19T05:36:26.228Z,1026.50
2023-02-19T05:37:26.809Z,1026.49
2023-02-19T05:38:27.407Z,1026.43
2023-02-19T05:39:28.011Z,1026.41
2023-02-19T05:40:28.614Z,1026.47
2023-02-19T05:41:29.203Z,1026.38
2023-02-19T05:42:29.862Z,1026.46
2023-02-19T05:43:30.459Z,1026.43
2023-02-19T05:44:31.114Z,1026.41
2023-02-19T05:45:31.714Z,1026.38
2023-02-19T05:46:32.461Z,1026.42
2023-02-19T05:47:33.107Z,1026.45
2023-02-19T05:48:33.702Z,1026.42
2023-02-19T05:49:34.300Z,1026.40
2023-02-19T05:50:34.904Z,1026.42
2023-02-19T05:51:35.514Z,1026.40
2023-02-19T05:52:36.112Z,1026.50
2023-02-19T05:53:36.760Z,1026.33
2023-02-19T05:54:37.435Z,1026.49
2023-02-19T05:55:38.032Z,1026.44
2023-02-19T05:56:38.639Z,1026.43
2023-02-19T05:57:40.837Z,1026.44
2023-02-19T05:58:40.823Z,1026.42
2023-02-19T05:59:41.470Z,1026.45
2023-02-19T06:00:42.076Z,1026.40
2023-02-19T06:01:42.675Z,1026.50
2023-02-19T06:02:44.115Z,1026.45
2023-02-19T06:03:44.745Z,1026.54
2023-02-19T06:04:45.349Z,1026.49
2023-02-19T06:05:45.953Z,1026.58
2023-02-19T06:06:46.556Z,1026.54
2023-02-19T06:07:47.153Z,1026.58
2023-02-19T06:08:47.754Z,1026.48
2023-02-19T06:09:48.356Z,1026.55
2023-02-19T06:10:48.951Z,1026.46
2023-02-19T06:11:49.561Z,1026.57
2023-02-19T06:12:50.207Z,1026.58
2023-02-19T06:13:50.803Z,1026.53
2023-02-19T06:14:51.399Z,1026.51
2023-02-19T06:15:52.072Z,1026.56
2023-02-19T06:16:52.656Z,1026.63
2023-02-19T06:17:53.257Z,1026.56
2023-02-19T06:18:53.861Z,1026.54
2023-02-19T06:19:55.308Z,1026.53
2023-02-19T06:20:55.911Z,1026.59
2023-02-19T06:21:56.518Z,1026.58
2023-02-19T06:22:57.118Z,1026.55
2023-02-19T06:23:57.736Z,1026.44
2023-02-19T06:24:58.337Z,1026.52
2023-02-19T06:25:58.943Z,1026.55
2023-02-19T06:26:59.541Z,1026.45
2023-02-19T06:28:00.144Z,1026.47
2023-02-19T06:29:00.738Z,1026.55
2023-02-19T06:30:01.368Z,1026.57
2023-02-19T06:31:02.123Z,1026.54
2023-02-19T06:32:03.678Z,1026.54
2023-02-19T06:33:05.118Z,1026.52
2023-02-19T06:34:05.788Z,1026.56
2023-02-19T06:35:06.438Z,1026.55
2023-02-19T06:36:07.035Z,1026.61
2023-02-19T06:37:07.637Z,1026.61
2023-02-19T06:38:08.239Z,1026.55
2023-02-19T06:39:08.834Z,1026.54
2023-02-19T06:40:09.427Z,1026.51
2023-02-19T06:41:10.436Z,1026.55
2023-02-19T06:42:11.150Z,1026.51
2023-02-19T06:43:11.744Z,1026.54
2023-02-19T06:44:12.348Z,1026.56
2023-02-19T06:45:12.944Z,1026.55
2023-02-19T06:46:14.464Z,1026.57
2023-02-19T06:47:15.082Z,1026.53
2023-02-19T06:48:15.681Z,1026.58
2023-02-19T06:49:16.280Z,1026.55
2023-02-19T06:50:16.886Z,1026.61
2023-02-19T06:51:17.554Z,1026.62
2023-02-19T06:52:18.178Z,1026.64
2023-02-19T06:53:18.757Z,1026.53
2023-02-19T06:54:19.368Z,1026.62
2023-02-19T06:55:20.046Z,1026.62
2023-02-19T06:56:20.659Z,1026.58
2023-02-19T06:57:21.263Z,1026.68
2023-02-19T06:58:21.866Z,1026.57
2023-02-19T06:59:22.469Z,1026.70
2023-02-19T07:00:23.065Z,1026.63
2023-02-19T07:01:23.660Z,1026.52
2023-02-19T07:02:24.258Z,1026.65
2023-02-19T07:03:24.851Z,1026.65
2023-02-19T07:04:25.503Z,1026.54
2023-02-19T07:05:26.110Z,1026.65
2023-02-19T07:06:26.790Z,1026.64
2023-02-19T07:07:27.465Z,1026.64
2023-02-19T07:08:29.656Z,1026.63
2023-02-19T07:09:29.731Z,1026.68
2023-02-19T07:10:30.332Z,1026.65
2023-02-19T07:11:30.938Z,1026.63
2023-02-19T07:12:31.543Z,1026.63
2023-02-19T07:13:32.165Z,1026.65
2023-02-19T07:14:32.786Z,1026.62
2023-02-19T07:15:33.374Z,1026.62
2023-02-19T07:16:34.047Z,1026.51
2023-02-19T07:17:34.677Z,1026.62
2023-02-19T07:18:35.283Z,1026.58
2023-02-19T07:19:35.875Z,1026.60
2023-02-19T07:20:36.471Z,1026.60
2023-02-19T07:21:37.141Z,1026.60
2023-02-19T07:22:37.747Z,1026.62
2023-02-19T07:23:38.357Z,1026.59
2023-02-19T07:24:38.944Z,1026.57
2023-02-19T07:25:39.548Z,1026.66
2023-02-19T07:26:40.139Z,1026.63
2023-02-19T07:27:40.750Z,1026.63
2023-02-19T07:28:41.352Z,1026.64
2023-02-19T07:29:41.953Z,1026.64
2023-02-19T07:30:42.589Z,1026.69
2023-02-19T07:31:43.237Z,1026.63
2023-02-19T07:32:43.856Z,1026.67
2023-02-19T07:33:44.498Z,1026.67
2023-02-19T07:34:45.120Z,1026.70
2023-02-19T07:35:45.794Z,1026.70
2023-02-19T07:36:46.497Z,1026.66
2023-02-19T07:37:47.149Z,1026.66
2023-02-19T07:38:47.800Z,1026.80
2023-02-19T07:39:48.395Z,1026.72
2023-02-19T07:40:49.843Z,1026.81
2023-02-19T07:41:50.436Z,1026.74
2023-02-19T07:42:51.031Z,1026.84
2023-02-19T07:43:51.642Z,1026.80
2023-02-19T07:44:52.243Z,1026.86
2023-02-19T07:45:52.937Z,1026.87
2023-02-19T07:46:53.541Z,1026.78
2023-02-19T07:47:54.132Z,1026.90
2023-02-19T07:48:54.736Z,1026.83
2023-02-19T07:49:56.140Z,1026.78
2023-02-19T07:50:56.742Z,1026.84
2023-02-19T07:51:57.348Z,1026.75
2023-02-19T07:52:57.946Z,1026.82
2023-02-19T07:53:58.546Z,1026.86
2023-02-19T07:54:59.141Z,1026.84
2023-02-19T07:55:59.737Z,1026.79
2023-02-19T07:57:00.341Z,1026.76
2023-02-19T07:58:00.937Z,1026.76
2023-02-19T07:59:01.532Z,1026.85
2023-02-19T08:00:02.129Z,1026.85
2023-02-19T08:01:02.758Z,1026.78
2023-02-19T08:02:03.360Z,1026.78
2023-02-19T08:03:03.990Z,1026.79
2023-02-19T08:04:04.586Z,1026.77
2023-02-19T08:05:05.177Z,1026.77
2023-02-19T08:06:05.786Z,1026.83
2023-02-19T08:07:06.448Z,1026.87
2023-02-19T08:08:07.051Z,1026.88
2023-02-19T08:09:07.665Z,1026.90
2023-02-19T08:10:08.316Z,1026.87
2023-02-19T08:11:09.134Z,1026.95
2023-02-19T08:12:09.768Z,1026.90
2023-02-19T08:13:10.422Z,1026.86
2023-02-19T08:14:11.036Z,1026.93
2023-02-19T08:15:11.620Z,1026.97
2023-02-19T08:16:20.126Z,1026.96
2023-02-19T08:17:13.855Z,1026.98
2023-02-19T08:18:14.460Z,1027.03
2023-02-19T08:19:15.125Z,1027.06
2023-02-19T08:20:15.718Z,1027.11
2023-02-19T08:21:16.315Z,1027.03
2023-02-19T08:22:16.923Z,1027.06
2023-02-19T08:23:17.525Z,1027.08
2023-02-19T08:24:18.117Z,1027.08
2023-02-19T08:25:18.723Z,1027.04
2023-02-19T08:26:19.330Z,1027.05
2023-02-19T08:27:19.927Z,1027.12
2023-02-19T08:28:20.544Z,1027.09
2023-02-19T08:29:21.159Z,1027.10
2023-02-19T08:30:21.779Z,1027.08
2023-02-19T08:31:22.492Z,1027.08
2023-02-19T08:32:23.175Z,1027.15
2023-02-19T08:33:23.772Z,1027.19
2023-02-19T08:34:24.369Z,1027.18
2023-02-19T08:35:24.967Z,1027.16
2023-02-19T08:36:25.559Z,1027.16
2023-02-19T08:37:26.154Z,1027.19
2023-02-19T08:38:26.748Z,1027.25
2023-02-19T08:39:27.345Z,1027.13
2023-02-19T08:40:27.993Z,1027.25
2023-02-19T08:41:28.597Z,1027.24
2023-02-19T08:42:29.214Z,1027.29
2023-02-19T08:43:29.846Z,1027.24
2023-02-19T08:44:30.433Z,1027.24
2023-02-19T08:45:31.078Z,1027.24
2023-02-19T08:46:34.052Z,1027.25
2023-02-19T08:47:33.279Z,1027.23
2023-02-19T08:48:33.887Z,1027.28
2023-02-19T08:49:34.489Z,1027.32
2023-02-19T08:50:35.096Z,1027.22
2023-02-19T08:51:35.692Z,1027.16
2023-02-19T08:52:36.336Z,1027.19
2023-02-19T08:53:36.952Z,1027.19
2023-02-19T08:54:37.603Z,1027.24
2023-02-19T08:55:38.196Z,1027.21
2023-02-19T08:56:38.857Z,1027.16
2023-02-19T08:57:39.460Z,1027.17
2023-02-19T08:58:40.063Z,1027.21
2023-02-19T08:59:40.666Z,1027.16
2023-02-19T09:00:41.271Z,1027.14
2023-02-19T09:01:41.948Z,1027.16
2023-02-19T09:02:42.538Z,1027.13
2023-02-19T09:03:43.132Z,1027.08
2023-02-19T09:04:43.734Z,1027.04
2023-02-19T09:05:44.336Z,1027.14
2023-02-19T09:06:44.936Z,1027.16
2023-02-19T09:07:45.533Z,1027.11
2023-02-19T09:08:46.200Z,1027.16
2023-02-19T09:09:46.798Z,1027.11
2023-02-19T09:10:47.399Z,1027.05
2023-02-19T09:11:49.347Z,1027.07
2023-02-19T09:12:49.582Z,1027.06
2023-02-19T09:13:50.184Z,1027.05
2023-02-19T09:14:50.779Z,1027.11
2023-02-19T09:15:51.400Z,1027.12
2023-02-19T09:16:52.001Z,1027.10
2023-02-19T09:17:52.595Z,1027.05
2023-02-19T09:18:53.199Z,1027.10
2023-02-19T09:19:53.795Z,1027.02
2023-02-19T09:20:54.393Z,1027.08
2023-02-19T09:21:54.989Z,1027.03
2023-02-19T09:22:55.594Z,1027.02
2023-02-19T09:23:56.197Z,1027.10
2023-02-19T09:24:56.847Z,1027.10
2023-02-19T09:25:57.442Z,1027.10
2023-02-19T09:26:58.044Z,1027.08
2023-02-19T09:27:58.652Z,1027.09
2023-02-19T09:28:59.242Z,1027.13
2023-02-19T09:29:59.862Z,1027.10
2023-02-19T09:31:00.579Z,1027.07
2023-02-19T09:32:01.268Z,1027.02
2023-02-19T09:33:01.899Z,1027.02
2023-02-19T09:34:02.506Z,1027.02
2023-02-19T09:35:03.102Z,1027.03
2023-02-19T09:36:03.776Z,1027.08
2023-02-19T09:37:04.364Z,1027.05
2023-02-19T09:38:04.974Z,1027.03
2023-02-19T09:39:05.574Z,1027.10
2023-02-19T09:40:06.193Z,1027.09
2023-02-19T09:41:06.786Z,1027.06
2023-02-19T09:42:07.437Z,1027.06
2023-02-19T09:43:08.036Z,1027.07
2023-02-19T09:44:08.632Z,1027.21
2023-02-19T09:45:09.237Z,1027.17
2023-02-19T09:46:09.937Z,1027.13
2023-02-19T09:47:10.562Z,1027.17
2023-02-19T09:48:11.166Z,1027.11
2023-02-19T09:49:11.774Z,1027.12
2023-02-19T09:50:12.360Z,1027.15
2023-02-19T09:51:13.028Z,1027.19
2023-02-19T09:52:13.608Z,1027.12
2023-02-19T09:53:14.260Z,1027.08
2023-02-19T09:54:14.863Z,1027.19
2023-02-19T09:55:15.468Z,1027.17
2023-02-19T09:56:16.166Z,1027.29
2023-02-19T09:57:16.759Z,1027.15
2023-02-19T09:58:17.393Z,1027.16
2023-02-19T09:59:17.991Z,1027.17
2023-02-19T10:00:18.644Z,1027.13
2023-02-19T10:01:19.283Z,1027.10
2023-02-19T10:02:19.878Z,1027.14
2023-02-19T10:03:20.483Z,1027.09
2023-02-19T10:04:21.093Z,1027.17
2023-02-19T10:05:21.716Z,1027.09
2023-02-19T10:06:22.309Z,1027.01
2023-02-19T10:07:22.913Z,1027.06
2023-02-19T10:08:24.361Z,1026.98
2023-02-19T10:09:24.967Z,1027.03
2023-02-19T10:10:25.569Z,1027.03
2023-02-19T10:11:26.164Z,1027.01
2023-02-19T10:12:26.759Z,1027.03
2023-02-19T10:13:27.351Z,1026.91
2023-02-19T10:14:27.955Z,1026.99
2023-02-19T10:15:28.560Z,1027.02
2023-02-19T10:16:29.154Z,1027.08
2023-02-19T10:17:29.755Z,1026.99
2023-02-19T10:18:30.348Z,1027.01
2023-02-19T10:19:30.947Z,1027.10
2023-02-19T10:20:31.544Z,1027.10
2023-02-19T10:21:32.148Z,1027.12
2023-02-19T10:22:32.752Z,1027.14
2023-02-19T10:23:33.354Z,1027.17
2023-02-19T10:24:33.977Z,1027.11
2023-02-19T10:25:34.561Z,1027.12
2023-02-19T10:26:35.164Z,1027.06
2023-02-19T10:27:35.761Z,1027.09
2023-02-19T10:28:36.354Z,1027.17
2023-02-19T10:29:36.952Z,1027.11
2023-02-19T10:30:37.661Z,1027.11
2023-02-19T10:31:38.413Z,1027.12
2023-02-19T10:32:39.027Z,1027.12
2023-02-19T10:33:39.631Z,1027.12
2023-02-19T10:34:40.230Z,1027.12
2023-02-19T10:35:40.822Z,1027.05
2023-02-19T10:36:41.425Z,1027.09
2023-02-19T10:37:42.021Z,1027.08
2023-02-19T10:38:42.617Z,1027.06
2023-02-19T10:39:43.218Z,1027.02
2023-02-19T10:40:43.817Z,1026.98
2023-02-19T10:41:44.577Z,1027.02
2023-02-19T10:42:45.158Z,1027.08
2023-02-19T10:43:45.755Z,1027.08
2023-02-19T10:44:46.354Z,1027.05
2023-02-19T10:45:46.948Z,1027.08
2023-02-19T10:46:47.589Z,1027.04
2023-02-19T10:47:48.178Z,1027.06
2023-02-19T10:48:48.775Z,1027.11
2023-02-19T10:49:49.374Z,1027.05
2023-02-19T10:50:50.042Z,1027.08
2023-02-19T10:51:50.618Z,1027.11
2023-02-19T10:52:51.224Z,1027.09
2023-02-19T10:53:51.826Z,1027.01
2023-02-19T10:54:53.294Z,1027.08
2023-02-19T10:55:53.888Z,1027.01
2023-02-19T10:56:54.548Z,1027.03
2023-02-19T10:57:55.211Z,1026.99
2023-02-19T10:58:55.830Z,1026.97
2023-02-19T10:59:56.418Z,1027.02
2023-02-19T11:00:57.094Z,1026.99
2023-02-19T11:01:57.815Z,1027.05
2023-02-19T11:02:58.526Z,1027.05
2023-02-19T11:03:59.133Z,1027.05
2023-02-19T11:04:59.724Z,1027.02
2023-02-19T11:06:00.320Z,1027.06
2023-02-19T11:07:00.929Z,1026.99
2023-02-19T11:08:01.529Z,1027.04
2023-02-19T11:09:02.150Z,1027.00
2023-02-19T11:10:02.754Z,1027.00
2023-02-19T11:11:03.346Z,1027.01
2023-02-19T11:12:03.941Z,1026.99
2023-02-19T11:13:04.561Z,1027.00
2023-02-19T11:14:05.145Z,1027.00
2023-02-19T11:15:05.741Z,1027.00
2023-02-19T11:16:06.413Z,1027.02
2023-02-19T11:17:07.018Z,1026.96
2023-02-19T11:18:07.686Z,1027.01
2023-02-19T11:19:08.281Z,1027.10
2023-02-19T11:20:08.885Z,1027.07
2023-02-19T11:21:09.821Z,1027.04
2023-02-19T11:22:10.501Z,1026.99
2023-02-19T11:23:11.098Z,1027.00
2023-02-19T11:24:11.693Z,1027.03
2023-02-19T11:25:12.298Z,1027.07
2023-02-19T11:26:12.902Z,1027.00
2023-02-19T11:27:13.506Z,1027.00
2023-02-19T11:28:14.960Z,1026.93
2023-02-19T11:29:15.559Z,1026.93
2023-02-19T11:30:16.240Z,1026.93
2023-02-19T11:31:16.991Z,1026.94
2023-02-19T11:32:17.810Z,1026.97
2023-02-19T11:33:18.427Z,1026.92
2023-02-19T11:34:19.050Z,1026.87
2023-02-19T11:35:19.647Z,1026.94
2023-02-19T11:36:20.244Z,1027.06
2023-02-19T11:37:20.843Z,1026.93
2023-02-19T11:38:21.444Z,1026.90
2023-02-19T11:39:22.046Z,1026.92
2023-02-19T11:40:22.653Z,1026.89
2023-02-19T11:41:23.240Z,1026.89
2023-02-19T11:42:23.843Z,1026.89
2023-02-19T11:43:24.445Z,1026.86
2023-02-19T11:44:25.040Z,1026.84
2023-02-19T11:45:25.636Z,1026.76
2023-02-19T11:46:26.299Z,1026.83
2023-02-19T11:47:26.907Z,1026.80
2023-02-19T11:48:28.649Z,1026.81
2023-02-19T11:49:29.092Z,1026.79
2023-02-19T11:50:29.749Z,1026.78
2023-02-19T11:51:30.356Z,1026.80
2023-02-19T11:52:30.953Z,1026.83
2023-02-19T11:53:31.558Z,1026.81
2023-02-19T11:54:32.167Z,1026.74
2023-02-19T11:55:32.829Z,1026.81
2023-02-19T11:56:33.484Z,1026.81
2023-02-19T11:57:34.939Z,1026.78
2023-02-19T11:58:35.541Z,1026.73
2023-02-19T11:59:36.142Z,1026.73
2023-02-19T12:00:36.748Z,1026.71
2023-02-19T12:01:37.401Z,1026.74
2023-02-19T12:02:38.027Z,1026.71
2023-02-19T12:03:38.676Z,1026.69
2023-02-19T12:04:39.282Z,1026.62
2023-02-19T12:05:39.905Z,1026.64
2023-02-19T12:06:40.553Z,1026.71
2023-02-19T12:07:41.201Z,1026.64
2023-02-19T12:08:41.868Z,1026.61
2023-02-19T12:09:42.516Z,1026.70
2023-02-19T12:10:43.179Z,1026.64
2023-02-19T12:11:43.780Z,1026.64
2023-02-19T12:12:44.450Z,1026.67
2023-02-19T12:13:45.116Z,1026.63